sensor_id;sensor_type;location;lat;lon;timestamp;temperature;humidity
5705;DHT22;2877;48.238;11.160;2023-08-20T00:00:14;22.30;99.90
5705;DHT22;2877;48.238;11.160;2023-08-20T00:02:42;22.30;99.90
5705;DHT22;2877;48.238;11.160;2023-08-20T00:05:09;22.30;99.90
5705;DHT22;2877;48.238;11.160;2023-08-20T00:07:35;22.20;99.90
5705;DHT22;2877;48.238;11.160;2023-08-20T00:10:01;22.20;99.90
5705;DHT22;2877;48.238;11.160;2023-08-20T00:12:29;22.20;99.90
5705;DHT22;2877;48.238;11.160;2023-08-20T00:15:00;22.20;99.90
5705;DHT22;2877;48.238;11.160;2023-08-20T00:17:36;22.20;99.90
5705;DHT22;2877;48.238;11.160;2023-08-20T00:20:06;22.20;99.90
5705;DHT22;2877;48.238;11.160;2023-08-20T00:22:41;22.10;99.90
5705;DHT22;2877;48.238;11.160;2023-08-20T00:25:12;22.10;99.90
5705;DHT22;2877;48.238;11.160;2023-08-20T00:27:39;22.10;99.90
5705;DHT22;2877;48.238;11.160;2023-08-20T00:30:05;22.10;99.90
5705;DHT22;2877;48.238;11.160;2023-08-20T00:32:31;22.00;99.90
5705;DHT22;2877;48.238;11.160;2023-08-20T00:34:56;21.90;99.90
5705;DHT22;2877;48.238;11.160;2023-08-20T00:37:22;21.80;99.90
5705;DHT22;2877;48.238;11.160;2023-08-20T00:39:47;21.70;99.90
5705;DHT22;2877;48.238;11.160;2023-08-20T00:42:13;21.60;99.90
5705;DHT22;2877;48.238;11.160;2023-08-20T00:44:40;21.50;99.90
5705;DHT22;2877;48.238;11.160;2023-08-20T00:47:13;21.40;99.90
5705;DHT22;2877;48.238;11.160;2023-08-20T00:49:39;21.30;99.90
5705;DHT22;2877;48.238;11.160;2023-08-20T00:52:08;21.20;99.90
5705;DHT22;2877;48.238;11.160;2023-08-20T00:54:34;21.10;99.90
5705;DHT22;2877;48.238;11.160;2023-08-20T00:57:01;21.10;99.90
5705;DHT22;2877;48.238;11.160;2023-08-20T00:59:27;21.10;99.90
5705;DHT22;2877;48.238;11.160;2023-08-20T01:01:54;21.00;99.90
5705;DHT22;2877;48.238;11.160;2023-08-20T01:04:19;21.00;99.90
5705;DHT22;2877;48.238;11.160;2023-08-20T01:11:52;20.90;99.90
5705;DHT22;2877;48.238;11.160;2023-08-20T01:14:20;20.80;99.90
5705;DHT22;2877;48.238;11.160;2023-08-20T01:16:46;20.80;99.90
5705;DHT22;2877;48.238;11.160;2023-08-20T01:19:20;20.70;99.90
5705;DHT22;2877;48.238;11.160;2023-08-20T01:24:58;20.60;99.90
5705;DHT22;2877;48.238;11.160;2023-08-20T01:27:28;20.60;99.90
5705;DHT22;2877;48.238;11.160;2023-08-20T01:29:58;20.50;99.90
5705;DHT22;2877;48.238;11.160;2023-08-20T01:32:25;20.40;99.90
5705;DHT22;2877;48.238;11.160;2023-08-20T01:34:52;20.30;99.90
5705;DHT22;2877;48.238;11.160;2023-08-20T01:37:18;20.20;99.90
5705;DHT22;2877;48.238;11.160;2023-08-20T01:39:44;20.20;99.90
5705;DHT22;2877;48.238;11.160;2023-08-20T01:42:09;20.10;99.90
5705;DHT22;2877;48.238;11.160;2023-08-20T01:44:35;20.10;99.90
5705;DHT22;2877;48.238;11.160;2023-08-20T01:47:00;20.10;99.90
5705;DHT22;2877;48.238;11.160;2023-08-20T01:49:26;20.10;99.90
5705;DHT22;2877;48.238;11.160;2023-08-20T01:51:51;20.10;99.90
5705;DHT22;2877;48.238;11.160;2023-08-20T01:54:17;20.10;99.90
5705;DHT22;2877;48.238;11.160;2023-08-20T01:56:42;20.00;99.90
5705;DHT22;2877;48.238;11.160;2023-08-20T01:59:08;19.90;99.90
5705;DHT22;2877;48.238;11.160;2023-08-20T02:01:34;19.90;99.90
5705;DHT22;2877;48.238;11.160;2023-08-20T02:03:59;19.80;99.90
5705;DHT22;2877;48.238;11.160;2023-08-20T02:06:25;19.80;99.90
5705;DHT22;2877;48.238;11.160;2023-08-20T02:08:50;19.80;99.90
5705;DHT22;2877;48.238;11.160;2023-08-20T02:11:16;19.70;99.90
5705;DHT22;2877;48.238;11.160;2023-08-20T02:13:41;19.80;99.90
5705;DHT22;2877;48.238;11.160;2023-08-20T02:16:07;19.70;99.90
5705;DHT22;2877;48.238;11.160;2023-08-20T02:18:33;19.70;99.90
5705;DHT22;2877;48.238;11.160;2023-08-20T02:20:58;19.70;99.90
5705;DHT22;2877;48.238;11.160;2023-08-20T02:23:24;19.60;99.90
5705;DHT22;2877;48.238;11.160;2023-08-20T02:25:49;19.50;99.90
5705;DHT22;2877;48.238;11.160;2023-08-20T02:28:15;19.40;99.90
5705;DHT22;2877;48.238;11.160;2023-08-20T02:30:45;19.30;99.90
5705;DHT22;2877;48.238;11.160;2023-08-20T02:33:11;19.20;99.90
5705;DHT22;2877;48.238;11.160;2023-08-20T02:35:37;19.10;99.90
5705;DHT22;2877;48.238;11.160;2023-08-20T02:38:04;19.00;99.90
5705;DHT22;2877;48.238;11.160;2023-08-20T02:40:30;19.00;99.90
5705;DHT22;2877;48.238;11.160;2023-08-20T02:42:55;19.10;99.90
5705;DHT22;2877;48.238;11.160;2023-08-20T02:45:21;19.10;99.90
5705;DHT22;2877;48.238;11.160;2023-08-20T02:47:47;19.00;99.90
5705;DHT22;2877;48.238;11.160;2023-08-20T02:50:13;19.00;99.90
5705;DHT22;2877;48.238;11.160;2023-08-20T02:52:38;19.00;99.90
5705;DHT22;2877;48.238;11.160;2023-08-20T02:55:04;18.90;99.90
5705;DHT22;2877;48.238;11.160;2023-08-20T02:57:32;18.90;99.90
5705;DHT22;2877;48.238;11.160;2023-08-20T02:59:58;19.00;99.90
5705;DHT22;2877;48.238;11.160;2023-08-20T03:02:23;19.00;99.90
5705;DHT22;2877;48.238;11.160;2023-08-20T03:04:49;19.00;99.90
5705;DHT22;2877;48.238;11.160;2023-08-20T03:07:14;18.90;99.90
5705;DHT22;2877;48.238;11.160;2023-08-20T03:09:40;18.90;99.90
5705;DHT22;2877;48.238;11.160;2023-08-20T03:12:06;18.80;99.90
5705;DHT22;2877;48.238;11.160;2023-08-20T03:14:31;18.70;99.90
5705;DHT22;2877;48.238;11.160;2023-08-20T03:16:57;18.60;99.90
5705;DHT22;2877;48.238;11.160;2023-08-20T03:19:22;18.60;99.90
5705;DHT22;2877;48.238;11.160;2023-08-20T03:21:48;18.50;99.90
5705;DHT22;2877;48.238;11.160;2023-08-20T03:24:13;18.50;99.90
5705;DHT22;2877;48.238;11.160;2023-08-20T03:26:39;18.40;99.90
5705;DHT22;2877;48.238;11.160;2023-08-20T03:29:04;18.40;99.90
5705;DHT22;2877;48.238;11.160;2023-08-20T03:31:31;18.50;99.90
5705;DHT22;2877;48.238;11.160;2023-08-20T03:33:56;18.60;99.90
5705;DHT22;2877;48.238;11.160;2023-08-20T03:36:22;18.60;99.90
5705;DHT22;2877;48.238;11.160;2023-08-20T03:38:47;18.70;99.90
5705;DHT22;2877;48.238;11.160;2023-08-20T03:41:13;18.60;99.90
5705;DHT22;2877;48.238;11.160;2023-08-20T03:43:38;18.60;99.90
5705;DHT22;2877;48.238;11.160;2023-08-20T03:46:04;18.50;99.90
5705;DHT22;2877;48.238;11.160;2023-08-20T03:48:29;18.60;99.90
5705;DHT22;2877;48.238;11.160;2023-08-20T03:50:56;18.60;99.90
5705;DHT22;2877;48.238;11.160;2023-08-20T03:53:21;18.60;99.90
5705;DHT22;2877;48.238;11.160;2023-08-20T03:55:50;18.60;99.90
5705;DHT22;2877;48.238;11.160;2023-08-20T03:58:16;18.60;99.90
5705;DHT22;2877;48.238;11.160;2023-08-20T04:00:43;18.50;99.90
5705;DHT22;2877;48.238;11.160;2023-08-20T04:03:09;18.40;99.90
5705;DHT22;2877;48.238;11.160;2023-08-20T04:05:37;18.40;99.90
5705;DHT22;2877;48.238;11.160;2023-08-20T04:08:04;18.30;99.90
5705;DHT22;2877;48.238;11.160;2023-08-20T04:10:30;18.30;99.90
5705;DHT22;2877;48.238;11.160;2023-08-20T04:12:56;18.40;99.90
5705;DHT22;2877;48.238;11.160;2023-08-20T04:15:22;18.40;99.90
5705;DHT22;2877;48.238;11.160;2023-08-20T04:17:47;18.40;99.90
5705;DHT22;2877;48.238;11.160;2023-08-20T04:20:14;18.40;99.90
5705;DHT22;2877;48.238;11.160;2023-08-20T04:22:40;18.40;99.90
5705;DHT22;2877;48.238;11.160;2023-08-20T04:25:06;18.40;99.90
5705;DHT22;2877;48.238;11.160;2023-08-20T04:27:31;18.40;99.90
5705;DHT22;2877;48.238;11.160;2023-08-20T04:29:57;18.30;99.90
5705;DHT22;2877;48.238;11.160;2023-08-20T04:32:22;18.30;99.90
5705;DHT22;2877;48.238;11.160;2023-08-20T04:34:48;18.20;99.90
5705;DHT22;2877;48.238;11.160;2023-08-20T04:37:18;18.10;99.90
5705;DHT22;2877;48.238;11.160;2023-08-20T04:39:44;18.10;99.90
5705;DHT22;2877;48.238;11.160;2023-08-20T04:42:09;18.10;99.90
5705;DHT22;2877;48.238;11.160;2023-08-20T04:44:35;18.00;99.90
5705;DHT22;2877;48.238;11.160;2023-08-20T04:47:00;18.10;99.90
5705;DHT22;2877;48.238;11.160;2023-08-20T04:49:26;18.10;99.90
5705;DHT22;2877;48.238;11.160;2023-08-20T04:51:54;18.20;99.90
5705;DHT22;2877;48.238;11.160;2023-08-20T04:54:19;18.30;99.90
5705;DHT22;2877;48.238;11.160;2023-08-20T04:56:45;18.40;99.90
5705;DHT22;2877;48.238;11.160;2023-08-20T04:59:10;18.40;99.90
5705;DHT22;2877;48.238;11.160;2023-08-20T05:01:38;18.50;99.90
5705;DHT22;2877;48.238;11.160;2023-08-20T05:04:03;18.50;99.90
5705;DHT22;2877;48.238;11.160;2023-08-20T05:06:29;18.60;99.90
5705;DHT22;2877;48.238;11.160;2023-08-20T05:08:54;18.70;99.90
5705;DHT22;2877;48.238;11.160;2023-08-20T05:11:20;18.80;99.90
5705;DHT22;2877;48.238;11.160;2023-08-20T05:13:49;18.90;99.90
5705;DHT22;2877;48.238;11.160;2023-08-20T05:16:15;19.00;99.90
5705;DHT22;2877;48.238;11.160;2023-08-20T05:18:40;19.10;99.90
5705;DHT22;2877;48.238;11.160;2023-08-20T05:21:06;19.20;99.90
5705;DHT22;2877;48.238;11.160;2023-08-20T05:23:32;19.40;99.90
5705;DHT22;2877;48.238;11.160;2023-08-20T05:25:57;19.50;99.90
5705;DHT22;2877;48.238;11.160;2023-08-20T05:28:23;19.50;99.90
5705;DHT22;2877;48.238;11.160;2023-08-20T05:30:55;19.60;99.90
5705;DHT22;2877;48.238;11.160;2023-08-20T05:33:22;19.60;99.90
5705;DHT22;2877;48.238;11.160;2023-08-20T05:35:48;19.60;99.90
5705;DHT22;2877;48.238;11.160;2023-08-20T05:38:13;19.70;99.90
5705;DHT22;2877;48.238;11.160;2023-08-20T05:40:39;19.80;99.90
5705;DHT22;2877;48.238;11.160;2023-08-20T05:43:05;19.90;99.90
5705;DHT22;2877;48.238;11.160;2023-08-20T05:45:30;20.00;99.90
5705;DHT22;2877;48.238;11.160;2023-08-20T05:47:56;20.10;99.90
5705;DHT22;2877;48.238;11.160;2023-08-20T05:50:21;20.30;99.90
5705;DHT22;2877;48.238;11.160;2023-08-20T05:52:47;20.30;99.90
5705;DHT22;2877;48.238;11.160;2023-08-20T05:55:14;20.40;99.90
5705;DHT22;2877;48.238;11.160;2023-08-20T05:57:39;20.60;99.90
5705;DHT22;2877;48.238;11.160;2023-08-20T06:00:08;20.60;99.90
5705;DHT22;2877;48.238;11.160;2023-08-20T06:02:34;20.70;99.90
5705;DHT22;2877;48.238;11.160;2023-08-20T06:04:59;20.80;99.90
5705;DHT22;2877;48.238;11.160;2023-08-20T06:07:25;20.90;99.90
5705;DHT22;2877;48.238;11.160;2023-08-20T06:09:50;21.00;99.90
5705;DHT22;2877;48.238;11.160;2023-08-20T06:12:19;21.10;99.90
5705;DHT22;2877;48.238;11.160;2023-08-20T06:14:45;21.30;99.90
5705;DHT22;2877;48.238;11.160;2023-08-20T06:17:10;21.40;99.90
5705;DHT22;2877;48.238;11.160;2023-08-20T06:19:36;21.50;99.90
5705;DHT22;2877;48.238;11.160;2023-08-20T06:22:01;21.70;99.90
5705;DHT22;2877;48.238;11.160;2023-08-20T06:24:28;21.80;99.90
5705;DHT22;2877;48.238;11.160;2023-08-20T06:26:53;21.90;99.90
5705;DHT22;2877;48.238;11.160;2023-08-20T06:29:19;22.00;99.90
5705;DHT22;2877;48.238;11.160;2023-08-20T06:31:47;22.10;99.90
5705;DHT22;2877;48.238;11.160;2023-08-20T06:34:13;22.20;99.90
5705;DHT22;2877;48.238;11.160;2023-08-20T06:36:39;22.30;99.90
5705;DHT22;2877;48.238;11.160;2023-08-20T06:39:05;22.40;99.90
5705;DHT22;2877;48.238;11.160;2023-08-20T06:41:30;22.50;99.90
5705;DHT22;2877;48.238;11.160;2023-08-20T06:43:56;22.60;99.90
5705;DHT22;2877;48.238;11.160;2023-08-20T06:46:21;22.80;99.90
5705;DHT22;2877;48.238;11.160;2023-08-20T06:48:47;22.90;99.90
5705;DHT22;2877;48.238;11.160;2023-08-20T06:51:19;23.00;99.90
5705;DHT22;2877;48.238;11.160;2023-08-20T06:53:45;23.10;99.90
5705;DHT22;2877;48.238;11.160;2023-08-20T06:56:11;23.30;99.90
5705;DHT22;2877;48.238;11.160;2023-08-20T06:58:40;23.40;99.90
5705;DHT22;2877;48.238;11.160;2023-08-20T07:01:06;23.50;99.90
5705;DHT22;2877;48.238;11.160;2023-08-20T07:03:37;23.60;99.90
5705;DHT22;2877;48.238;11.160;2023-08-20T07:06:03;23.70;99.90
5705;DHT22;2877;48.238;11.160;2023-08-20T07:08:29;23.90;99.90
5705;DHT22;2877;48.238;11.160;2023-08-20T07:10:55;24.00;99.90
5705;DHT22;2877;48.238;11.160;2023-08-20T07:13:20;24.10;99.90
5705;DHT22;2877;48.238;11.160;2023-08-20T07:15:46;24.30;99.90
5705;DHT22;2877;48.238;11.160;2023-08-20T07:18:11;24.40;99.90
5705;DHT22;2877;48.238;11.160;2023-08-20T07:20:39;24.60;99.90
5705;DHT22;2877;48.238;11.160;2023-08-20T07:23:04;24.80;99.90
5705;DHT22;2877;48.238;11.160;2023-08-20T07:25:30;24.90;99.90
5705;DHT22;2877;48.238;11.160;2023-08-20T07:27:56;25.10;99.90
5705;DHT22;2877;48.238;11.160;2023-08-20T07:30:25;25.20;99.90
5705;DHT22;2877;48.238;11.160;2023-08-20T07:32:51;25.30;99.90
5705;DHT22;2877;48.238;11.160;2023-08-20T07:35:16;25.30;99.90
5705;DHT22;2877;48.238;11.160;2023-08-20T07:37:42;25.30;99.90
5705;DHT22;2877;48.238;11.160;2023-08-20T07:40:08;25.40;99.90
5705;DHT22;2877;48.238;11.160;2023-08-20T07:42:34;25.50;99.90
5705;DHT22;2877;48.238;11.160;2023-08-20T07:45:00;25.70;99.90
5705;DHT22;2877;48.238;11.160;2023-08-20T07:47:26;25.60;99.90
5705;DHT22;2877;48.238;11.160;2023-08-20T07:49:54;25.50;99.90
5705;DHT22;2877;48.238;11.160;2023-08-20T07:52:20;25.70;99.90
5705;DHT22;2877;48.238;11.160;2023-08-20T07:54:45;25.90;99.90
5705;DHT22;2877;48.238;11.160;2023-08-20T07:57:11;26.10;99.90
5705;DHT22;2877;48.238;11.160;2023-08-20T07:59:37;26.30;99.90
5705;DHT22;2877;48.238;11.160;2023-08-20T08:02:03;26.50;99.90
5705;DHT22;2877;48.238;11.160;2023-08-20T08:04:29;26.70;99.90
5705;DHT22;2877;48.238;11.160;2023-08-20T08:06:55;27.00;99.90
5705;DHT22;2877;48.238;11.160;2023-08-20T08:09:31;27.10;99.90
5705;DHT22;2877;48.238;11.160;2023-08-20T08:11:58;27.20;99.90
5705;DHT22;2877;48.238;11.160;2023-08-20T08:14:24;27.30;99.90
5705;DHT22;2877;48.238;11.160;2023-08-20T08:16:50;27.50;99.90
5705;DHT22;2877;48.238;11.160;2023-08-20T08:19:16;27.70;99.90
5705;DHT22;2877;48.238;11.160;2023-08-20T08:21:43;27.80;99.90
5705;DHT22;2877;48.238;11.160;2023-08-20T08:24:09;27.90;99.90
5705;DHT22;2877;48.238;11.160;2023-08-20T08:26:35;28.00;99.90
5705;DHT22;2877;48.238;11.160;2023-08-20T08:29:05;28.00;99.90
5705;DHT22;2877;48.238;11.160;2023-08-20T08:31:31;27.90;99.90
5705;DHT22;2877;48.238;11.160;2023-08-20T08:33:56;28.00;99.90
5705;DHT22;2877;48.238;11.160;2023-08-20T08:36:22;28.10;99.90
5705;DHT22;2877;48.238;11.160;2023-08-20T08:38:50;28.20;99.90
5705;DHT22;2877;48.238;11.160;2023-08-20T08:41:16;28.40;99.90
5705;DHT22;2877;48.238;11.160;2023-08-20T08:43:42;28.50;99.10
5705;DHT22;2877;48.238;11.160;2023-08-20T08:46:12;28.70;98.70
5705;DHT22;2877;48.238;11.160;2023-08-20T08:48:40;28.80;97.30
5705;DHT22;2877;48.238;11.160;2023-08-20T08:51:06;29.00;97.10
5705;DHT22;2877;48.238;11.160;2023-08-20T08:53:32;29.00;96.00
5705;DHT22;2877;48.238;11.160;2023-08-20T08:55:59;29.10;95.40
5705;DHT22;2877;48.238;11.160;2023-08-20T08:58:25;29.10;93.70
5705;DHT22;2877;48.238;11.160;2023-08-20T09:00:50;29.20;92.70
5705;DHT22;2877;48.238;11.160;2023-08-20T09:03:16;29.30;92.20
5705;DHT22;2877;48.238;11.160;2023-08-20T09:05:55;29.50;91.60
5705;DHT22;2877;48.238;11.160;2023-08-20T09:08:31;29.60;90.70
5705;DHT22;2877;48.238;11.160;2023-08-20T09:10:59;29.70;91.40
5705;DHT22;2877;48.238;11.160;2023-08-20T09:13:27;29.80;91.50
5705;DHT22;2877;48.238;11.160;2023-08-20T09:15:57;29.90;90.90
5705;DHT22;2877;48.238;11.160;2023-08-20T09:18:23;30.00;90.30
5705;DHT22;2877;48.238;11.160;2023-08-20T09:20:49;30.10;90.10
5705;DHT22;2877;48.238;11.160;2023-08-20T09:23:15;30.10;85.40
5705;DHT22;2877;48.238;11.160;2023-08-20T09:25:42;30.20;88.70
5705;DHT22;2877;48.238;11.160;2023-08-20T09:28:08;30.40;88.30
5705;DHT22;2877;48.238;11.160;2023-08-20T09:30:34;30.50;87.10
5705;DHT22;2877;48.238;11.160;2023-08-20T09:33:18;30.50;84.80
5705;DHT22;2877;48.238;11.160;2023-08-20T09:35:51;30.70;86.90
5705;DHT22;2877;48.238;11.160;2023-08-20T09:38:19;30.80;85.90
5705;DHT22;2877;48.238;11.160;2023-08-20T09:40:49;30.80;87.00
5705;DHT22;2877;48.238;11.160;2023-08-20T09:43:16;30.80;84.50
5705;DHT22;2877;48.238;11.160;2023-08-20T09:45:42;31.00;83.70
5705;DHT22;2877;48.238;11.160;2023-08-20T09:48:09;31.10;78.80
5705;DHT22;2877;48.238;11.160;2023-08-20T09:50:37;31.10;78.50
5705;DHT22;2877;48.238;11.160;2023-08-20T09:53:12;31.10;82.60
5705;DHT22;2877;48.238;11.160;2023-08-20T09:55:41;31.30;81.10
5705;DHT22;2877;48.238;11.160;2023-08-20T09:58:08;31.30;82.90
5705;DHT22;2877;48.238;11.160;2023-08-20T10:00:35;31.50;84.20
5705;DHT22;2877;48.238;11.160;2023-08-20T10:03:01;31.50;83.50
5705;DHT22;2877;48.238;11.160;2023-08-20T10:05:27;31.60;79.10
5705;DHT22;2877;48.238;11.160;2023-08-20T10:07:55;31.70;77.90
5705;DHT22;2877;48.238;11.160;2023-08-20T10:10:21;31.80;77.50
5705;DHT22;2877;48.238;11.160;2023-08-20T10:12:46;31.80;77.90
5705;DHT22;2877;48.238;11.160;2023-08-20T10:15:14;31.80;74.70
5705;DHT22;2877;48.238;11.160;2023-08-20T10:17:42;32.00;73.20
5705;DHT22;2877;48.238;11.160;2023-08-20T10:20:09;32.10;73.60
5705;DHT22;2877;48.238;11.160;2023-08-20T10:22:42;32.30;74.20
5705;DHT22;2877;48.238;11.160;2023-08-20T10:25:09;32.30;75.70
5705;DHT22;2877;48.238;11.160;2023-08-20T10:27:38;32.50;74.80
5705;DHT22;2877;48.238;11.160;2023-08-20T10:30:11;32.60;72.10
5705;DHT22;2877;48.238;11.160;2023-08-20T10:32:52;32.60;73.90
5705;DHT22;2877;48.238;11.160;2023-08-20T10:35:26;32.70;72.50
5705;DHT22;2877;48.238;11.160;2023-08-20T10:38:14;32.80;71.00
5705;DHT22;2877;48.238;11.160;2023-08-20T10:40:55;32.90;73.20
5705;DHT22;2877;48.238;11.160;2023-08-20T10:43:35;33.00;69.70
5705;DHT22;2877;48.238;11.160;2023-08-20T10:46:13;33.20;71.40
5705;DHT22;2877;48.238;11.160;2023-08-20T10:48:40;33.40;70.80
5705;DHT22;2877;48.238;11.160;2023-08-20T10:51:13;33.30;68.80
5705;DHT22;2877;48.238;11.160;2023-08-20T10:53:41;33.50;67.50
5705;DHT22;2877;48.238;11.160;2023-08-20T10:56:11;33.50;70.40
5705;DHT22;2877;48.238;11.160;2023-08-20T10:58:47;33.50;66.70
5705;DHT22;2877;48.238;11.160;2023-08-20T11:01:22;33.70;66.70
5705;DHT22;2877;48.238;11.160;2023-08-20T11:03:49;33.60;67.50
5705;DHT22;2877;48.238;11.160;2023-08-20T11:06:16;33.70;66.20
5705;DHT22;2877;48.238;11.160;2023-08-20T11:08:42;33.90;67.10
5705;DHT22;2877;48.238;11.160;2023-08-20T11:11:08;33.90;64.10
5705;DHT22;2877;48.238;11.160;2023-08-20T11:13:35;33.80;64.20
5705;DHT22;2877;48.238;11.160;2023-08-20T11:16:02;34.00;66.30
5705;DHT22;2877;48.238;11.160;2023-08-20T11:18:28;34.00;65.30
5705;DHT22;2877;48.238;11.160;2023-08-20T11:20:54;34.10;64.30
5705;DHT22;2877;48.238;11.160;2023-08-20T11:23:20;34.20;65.10
5705;DHT22;2877;48.238;11.160;2023-08-20T11:25:46;34.40;63.00
5705;DHT22;2877;48.238;11.160;2023-08-20T11:28:12;34.60;60.10
5705;DHT22;2877;48.238;11.160;2023-08-20T11:30:38;34.50;63.00
5705;DHT22;2877;48.238;11.160;2023-08-20T11:33:04;34.60;61.40
5705;DHT22;2877;48.238;11.160;2023-08-20T11:35:31;34.90;59.70
5705;DHT22;2877;48.238;11.160;2023-08-20T11:37:57;35.00;60.40
5705;DHT22;2877;48.238;11.160;2023-08-20T11:40:23;34.90;59.90
5705;DHT22;2877;48.238;11.160;2023-08-20T11:42:49;35.00;61.20
5705;DHT22;2877;48.238;11.160;2023-08-20T11:45:15;35.20;60.30
5705;DHT22;2877;48.238;11.160;2023-08-20T11:47:41;35.60;59.90
5705;DHT22;2877;48.238;11.160;2023-08-20T11:50:08;35.80;57.20
5705;DHT22;2877;48.238;11.160;2023-08-20T11:52:35;36.10;55.70
5705;DHT22;2877;48.238;11.160;2023-08-20T11:55:01;36.20;57.00
5705;DHT22;2877;48.238;11.160;2023-08-20T11:57:29;36.20;56.60
5705;DHT22;2877;48.238;11.160;2023-08-20T11:59:55;36.30;54.80
5705;DHT22;2877;48.238;11.160;2023-08-20T12:02:27;36.30;53.50
5705;DHT22;2877;48.238;11.160;2023-08-20T12:04:56;36.60;51.60
5705;DHT22;2877;48.238;11.160;2023-08-20T12:07:26;36.70;52.30
5705;DHT22;2877;48.238;11.160;2023-08-20T12:09:55;36.80;50.90
5705;DHT22;2877;48.238;11.160;2023-08-20T12:12:21;36.80;51.80
5705;DHT22;2877;48.238;11.160;2023-08-20T12:14:47;37.00;52.30
5705;DHT22;2877;48.238;11.160;2023-08-20T12:17:17;37.40;52.10
5705;DHT22;2877;48.238;11.160;2023-08-20T12:19:43;37.70;49.50
5705;DHT22;2877;48.238;11.160;2023-08-20T12:22:08;37.80;50.80
5705;DHT22;2877;48.238;11.160;2023-08-20T12:24:34;37.80;48.50
5705;DHT22;2877;48.238;11.160;2023-08-20T12:27:00;37.70;47.90
5705;DHT22;2877;48.238;11.160;2023-08-20T12:29:25;37.60;48.70
5705;DHT22;2877;48.238;11.160;2023-08-20T12:31:51;38.00;47.40
5705;DHT22;2877;48.238;11.160;2023-08-20T12:34:17;38.40;48.10
5705;DHT22;2877;48.238;11.160;2023-08-20T12:36:42;38.70;47.30
5705;DHT22;2877;48.238;11.160;2023-08-20T12:39:08;39.10;46.50
5705;DHT22;2877;48.238;11.160;2023-08-20T12:41:34;39.20;44.00
5705;DHT22;2877;48.238;11.160;2023-08-20T12:44:01;39.40;42.90
5705;DHT22;2877;48.238;11.160;2023-08-20T12:46:27;39.40;43.00
5705;DHT22;2877;48.238;11.160;2023-08-20T12:48:52;39.60;45.60
5705;DHT22;2877;48.238;11.160;2023-08-20T12:51:18;40.10;44.30
5705;DHT22;2877;48.238;11.160;2023-08-20T12:53:43;40.60;44.50
5705;DHT22;2877;48.238;11.160;2023-08-20T12:56:09;41.00;40.70
5705;DHT22;2877;48.238;11.160;2023-08-20T12:58:35;41.50;40.20
5705;DHT22;2877;48.238;11.160;2023-08-20T13:01:01;41.90;40.50
5705;DHT22;2877;48.238;11.160;2023-08-20T13:03:27;42.30;37.50
5705;DHT22;2877;48.238;11.160;2023-08-20T13:05:54;41.90;38.00
5705;DHT22;2877;48.238;11.160;2023-08-20T13:08:22;42.30;37.50
5705;DHT22;2877;48.238;11.160;2023-08-20T13:10:56;42.90;36.80
5705;DHT22;2877;48.238;11.160;2023-08-20T13:13:23;43.70;37.70
5705;DHT22;2877;48.238;11.160;2023-08-20T13:15:50;44.10;36.10
5705;DHT22;2877;48.238;11.160;2023-08-20T13:18:16;44.30;34.60
5705;DHT22;2877;48.238;11.160;2023-08-20T13:20:42;44.70;34.90
5705;DHT22;2877;48.238;11.160;2023-08-20T13:23:09;44.90;33.90
5705;DHT22;2877;48.238;11.160;2023-08-20T13:25:34;45.00;34.00
5705;DHT22;2877;48.238;11.160;2023-08-20T13:28:00;44.70;33.40
5705;DHT22;2877;48.238;11.160;2023-08-20T13:30:25;44.70;32.00
5705;DHT22;2877;48.238;11.160;2023-08-20T13:32:51;44.60;32.30
5705;DHT22;2877;48.238;11.160;2023-08-20T13:35:16;44.60;32.80
5705;DHT22;2877;48.238;11.160;2023-08-20T13:37:42;44.50;32.40
5705;DHT22;2877;48.238;11.160;2023-08-20T13:40:08;44.20;33.00
5705;DHT22;2877;48.238;11.160;2023-08-20T13:42:35;44.00;34.70
5705;DHT22;2877;48.238;11.160;2023-08-20T13:45:01;43.90;33.00
5705;DHT22;2877;48.238;11.160;2023-08-20T13:47:26;43.90;33.10
5705;DHT22;2877;48.238;11.160;2023-08-20T13:49:52;44.10;33.60
5705;DHT22;2877;48.238;11.160;2023-08-20T13:52:17;44.10;32.40
5705;DHT22;2877;48.238;11.160;2023-08-20T13:54:43;43.80;32.90
5705;DHT22;2877;48.238;11.160;2023-08-20T13:57:09;43.60;32.30
5705;DHT22;2877;48.238;11.160;2023-08-20T13:59:34;43.60;33.20
5705;DHT22;2877;48.238;11.160;2023-08-20T14:02:00;43.40;32.80
5705;DHT22;2877;48.238;11.160;2023-08-20T14:04:25;43.70;33.50
5705;DHT22;2877;48.238;11.160;2023-08-20T14:06:52;44.00;32.80
5705;DHT22;2877;48.238;11.160;2023-08-20T14:09:18;43.90;33.40
5705;DHT22;2877;48.238;11.160;2023-08-20T14:11:44;43.90;33.70
5705;DHT22;2877;48.238;11.160;2023-08-20T14:14:10;43.60;32.50
5705;DHT22;2877;48.238;11.160;2023-08-20T14:16:36;43.60;33.90
5705;DHT22;2877;48.238;11.160;2023-08-20T14:19:01;43.80;33.80
5705;DHT22;2877;48.238;11.160;2023-08-20T14:21:27;44.10;32.40
5705;DHT22;2877;48.238;11.160;2023-08-20T14:23:53;44.40;32.50
5705;DHT22;2877;48.238;11.160;2023-08-20T14:26:18;44.40;31.90
5705;DHT22;2877;48.238;11.160;2023-08-20T14:28:44;44.20;32.50
5705;DHT22;2877;48.238;11.160;2023-08-20T14:31:10;44.00;32.20
5705;DHT22;2877;48.238;11.160;2023-08-20T14:33:36;44.00;33.60
5705;DHT22;2877;48.238;11.160;2023-08-20T14:36:02;43.70;33.20
5705;DHT22;2877;48.238;11.160;2023-08-20T14:38:30;43.30;32.70
5705;DHT22;2877;48.238;11.160;2023-08-20T14:41:00;42.60;33.30
5705;DHT22;2877;48.238;11.160;2023-08-20T14:43:26;41.00;36.00
5705;DHT22;2877;48.238;11.160;2023-08-20T14:45:52;39.80;37.10
5705;DHT22;2877;48.238;11.160;2023-08-20T14:48:17;38.90;37.20
5705;DHT22;2877;48.238;11.160;2023-08-20T14:50:43;38.00;38.20
5705;DHT22;2877;48.238;11.160;2023-08-20T14:53:09;37.20;40.00
5705;DHT22;2877;48.238;11.160;2023-08-20T14:55:34;36.60;40.90
5705;DHT22;2877;48.238;11.160;2023-08-20T14:58:00;36.10;42.00
5705;DHT22;2877;48.238;11.160;2023-08-20T15:00:25;35.80;41.90
5705;DHT22;2877;48.238;11.160;2023-08-20T15:02:51;35.30;42.30
5705;DHT22;2877;48.238;11.160;2023-08-20T15:05:16;35.10;43.90
5705;DHT22;2877;48.238;11.160;2023-08-20T15:07:42;34.80;43.90
5705;DHT22;2877;48.238;11.160;2023-08-20T15:10:08;34.60;43.80
5705;DHT22;2877;48.238;11.160;2023-08-20T15:12:34;34.30;44.80
5705;DHT22;2877;48.238;11.160;2023-08-20T15:15:01;34.20;45.50
5705;DHT22;2877;48.238;11.160;2023-08-20T15:17:28;34.20;45.00
5705;DHT22;2877;48.238;11.160;2023-08-20T15:19:54;34.20;45.30
5705;DHT22;2877;48.238;11.160;2023-08-20T15:22:19;34.10;46.30
5705;DHT22;2877;48.238;11.160;2023-08-20T15:24:45;34.10;46.70
5705;DHT22;2877;48.238;11.160;2023-08-20T15:27:10;34.00;46.40
5705;DHT22;2877;48.238;11.160;2023-08-20T15:29:36;34.00;47.00
5705;DHT22;2877;48.238;11.160;2023-08-20T15:32:01;34.00;47.00
5705;DHT22;2877;48.238;11.160;2023-08-20T15:34:30;34.00;45.60
5705;DHT22;2877;48.238;11.160;2023-08-20T15:36:55;34.00;47.20
5705;DHT22;2877;48.238;11.160;2023-08-20T15:39:21;34.00;47.70
5705;DHT22;2877;48.238;11.160;2023-08-20T15:41:47;34.00;46.70
5705;DHT22;2877;48.238;11.160;2023-08-20T15:44:13;34.00;49.60
5705;DHT22;2877;48.238;11.160;2023-08-20T15:46:38;34.00;48.10
5705;DHT22;2877;48.238;11.160;2023-08-20T15:49:04;34.00;47.10